sensor_id;sensor_type;location;lat;lon;timestamp;P1;durP1;ratioP1;P2;durP2;ratioP2
30515;SDS011;17297;54.022;10.760;2022-07-29T00:00:34;1.25;;;0.80;;
30515;SDS011;17297;54.022;10.760;2022-07-29T00:02:59;2.30;;;1.08;;
30515;SDS011;17297;54.022;10.760;2022-07-29T00:05:24;1.35;;;0.93;;
30515;SDS011;17297;54.022;10.760;2022-07-29T00:07:50;1.60;;;1.50;;
30515;SDS011;17297;54.022;10.760;2022-07-29T00:10:15;0.80;;;0.80;;
30515;SDS011;17297;54.022;10.760;2022-07-29T00:12:41;2.08;;;0.98;;
30515;SDS011;17297;54.022;10.760;2022-07-29T00:15:06;1.75;;;1.63;;
30515;SDS011;17297;54.022;10.760;2022-07-29T00:17:32;0.70;;;0.70;;
30515;SDS011;17297;54.022;10.760;2022-07-29T00:19:58;1.10;;;0.85;;
30515;SDS011;17297;54.022;10.760;2022-07-29T00:22:24;1.50;;;0.85;;
30515;SDS011;17297;54.022;10.760;2022-07-29T00:24:50;1.23;;;1.13;;
30515;SDS011;17297;54.022;10.760;2022-07-29T00:27:15;1.25;;;1.00;;
30515;SDS011;17297;54.022;10.760;2022-07-29T00:29:41;0.90;;;0.90;;
30515;SDS011;17297;54.022;10.760;2022-07-29T00:32:06;1.25;;;1.05;;
30515;SDS011;17297;54.022;10.760;2022-07-29T00:34:32;2.08;;;1.10;;
30515;SDS011;17297;54.022;10.760;2022-07-29T00:37:16;1.77;;;1.63;;
30515;SDS011;17297;54.022;10.760;2022-07-29T00:39:41;4.45;;;1.80;;
30515;SDS011;17297;54.022;10.760;2022-07-29T00:42:07;4.60;;;2.03;;
30515;SDS011;17297;54.022;10.760;2022-07-29T00:44:39;4.60;;;2.40;;
30515;SDS011;17297;54.022;10.760;2022-07-29T00:47:06;2.90;;;2.05;;
30515;SDS011;17297;54.022;10.760;2022-07-29T00:49:32;3.83;;;2.00;;
30515;SDS011;17297;54.022;10.760;2022-07-29T00:52:00;2.92;;;2.20;;
30515;SDS011;17297;54.022;10.760;2022-07-29T00:54:27;3.80;;;2.33;;
30515;SDS011;17297;54.022;10.760;2022-07-29T00:56:53;3.45;;;1.95;;
30515;SDS011;17297;54.022;10.760;2022-07-29T00:59:21;4.30;;;2.72;;
30515;SDS011;17297;54.022;10.760;2022-07-29T01:01:46;3.53;;;2.20;;
30515;SDS011;17297;54.022;10.760;2022-07-29T01:04:12;2.92;;;2.10;;
30515;SDS011;17297;54.022;10.760;2022-07-29T01:06:37;9.13;;;2.63;;
30515;SDS011;17297;54.022;10.760;2022-07-29T01:09:02;3.45;;;2.90;;
30515;SDS011;17297;54.022;10.760;2022-07-29T01:11:28;3.80;;;2.00;;
30515;SDS011;17297;54.022;10.760;2022-07-29T01:13:55;2.88;;;2.17;;
30515;SDS011;17297;54.022;10.760;2022-07-29T01:16:24;2.30;;;1.88;;
30515;SDS011;17297;54.022;10.760;2022-07-29T01:18:56;2.60;;;2.20;;
30515;SDS011;17297;54.022;10.760;2022-07-29T01:21:35;2.90;;;1.60;;
30515;SDS011;17297;54.022;10.760;2022-07-29T01:24:34;3.50;;;1.63;;
30515;SDS011;17297;54.022;10.760;2022-07-29T01:27:19;2.05;;;1.83;;
30515;SDS011;17297;54.022;10.760;2022-07-29T01:29:54;2.78;;;1.85;;
30515;SDS011;17297;54.022;10.760;2022-07-29T01:32:22;2.30;;;1.58;;
30515;SDS011;17297;54.022;10.760;2022-07-29T01:34:53;1.65;;;1.55;;
30515;SDS011;17297;54.022;10.760;2022-07-29T01:40:01;2.85;;;1.60;;
30515;SDS011;17297;54.022;10.760;2022-07-29T01:42:32;3.03;;;2.17;;
30515;SDS011;17297;54.022;10.760;2022-07-29T01:45:03;1.70;;;1.58;;
30515;SDS011;17297;54.022;10.760;2022-07-29T01:47:46;1.70;;;1.40;;
30515;SDS011;17297;54.022;10.760;2022-07-29T01:50:19;2.90;;;1.45;;
30515;SDS011;17297;54.022;10.760;2022-07-29T01:53:02;2.67;;;1.70;;
30515;SDS011;17297;54.022;10.760;2022-07-29T01:55:31;1.95;;;1.52;;
30515;SDS011;17297;54.022;10.760;2022-07-29T01:57:59;1.45;;;1.35;;
30515;SDS011;17297;54.022;10.760;2022-07-29T02:00:28;2.92;;;1.75;;
30515;SDS011;17297;54.022;10.760;2022-07-29T02:02:56;4.43;;;1.73;;
30515;SDS011;17297;54.022;10.760;2022-07-29T02:05:25;1.80;;;1.45;;
30515;SDS011;17297;54.022;10.760;2022-07-29T02:07:53;3.25;;;1.65;;
30515;SDS011;17297;54.022;10.760;2022-07-29T02:10:23;2.08;;;1.50;;
30515;SDS011;17297;54.022;10.760;2022-07-29T02:12:52;2.60;;;2.13;;
30515;SDS011;17297;54.022;10.760;2022-07-29T02:15:20;1.98;;;1.67;;
30515;SDS011;17297;54.022;10.760;2022-07-29T02:17:51;1.60;;;1.50;;
30515;SDS011;17297;54.022;10.760;2022-07-29T02:20:22;1.90;;;1.73;;
30515;SDS011;17297;54.022;10.760;2022-07-29T02:22:50;3.25;;;1.50;;
30515;SDS011;17297;54.022;10.760;2022-07-29T02:25:18;2.38;;;1.70;;
30515;SDS011;17297;54.022;10.760;2022-07-29T02:27:46;3.85;;;1.70;;
30515;SDS011;17297;54.022;10.760;2022-07-29T02:30:12;2.17;;;1.33;;
30515;SDS011;17297;54.022;10.760;2022-07-29T02:32:38;1.80;;;1.50;;
30515;SDS011;17297;54.022;10.760;2022-07-29T02:35:06;2.03;;;1.70;;
30515;SDS011;17297;54.022;10.760;2022-07-29T02:37:34;1.67;;;1.58;;
30515;SDS011;17297;54.022;10.760;2022-07-29T02:40:00;1.88;;;1.50;;
30515;SDS011;17297;54.022;10.760;2022-07-29T02:42:27;2.05;;;1.50;;
30515;SDS011;17297;54.022;10.760;2022-07-29T02:44:53;1.52;;;1.42;;
30515;SDS011;17297;54.022;10.760;2022-07-29T02:49:57;2.22;;;1.98;;
30515;SDS011;17297;54.022;10.760;2022-07-29T02:55:36;1.50;;;1.40;;
30515;SDS011;17297;54.022;10.760;2022-07-29T02:58:05;2.47;;;1.50;;
30515;SDS011;17297;54.022;10.760;2022-07-29T03:00:40;3.75;;;1.77;;
30515;SDS011;17297;54.022;10.760;2022-07-29T03:03:11;2.22;;;1.60;;
30515;SDS011;17297;54.022;10.760;2022-07-29T03:05:38;1.95;;;1.48;;
30515;SDS011;17297;54.022;10.760;2022-07-29T03:08:04;2.00;;;1.80;;
30515;SDS011;17297;54.022;10.760;2022-07-29T03:10:32;1.40;;;1.27;;
30515;SDS011;17297;54.022;10.760;2022-07-29T03:12:58;1.80;;;1.20;;
30515;SDS011;17297;54.022;10.760;2022-07-29T03:15:25;2.75;;;2.00;;
30515;SDS011;17297;54.022;10.760;2022-07-29T03:17:51;1.65;;;1.55;;
30515;SDS011;17297;54.022;10.760;2022-07-29T03:20:19;5.85;;;1.83;;
30515;SDS011;17297;54.022;10.760;2022-07-29T03:22:44;3.58;;;1.90;;
30515;SDS011;17297;54.022;10.760;2022-07-29T03:25:14;2.17;;;1.50;;
30515;SDS011;17297;54.022;10.760;2022-07-29T03:27:41;2.38;;;1.85;;
30515;SDS011;17297;54.022;10.760;2022-07-29T03:30:08;2.75;;;2.10;;
30515;SDS011;17297;54.022;10.760;2022-07-29T03:32:34;2.72;;;1.80;;
30515;SDS011;17297;54.022;10.760;2022-07-29T03:35:00;3.83;;;2.20;;
30515;SDS011;17297;54.022;10.760;2022-07-29T03:37:25;2.60;;;1.75;;
30515;SDS011;17297;54.022;10.760;2022-07-29T03:39:51;3.67;;;2.22;;
30515;SDS011;17297;54.022;10.760;2022-07-29T03:42:19;4.53;;;2.30;;
30515;SDS011;17297;54.022;10.760;2022-07-29T03:44:48;3.55;;;1.83;;
30515;SDS011;17297;54.022;10.760;2022-07-29T03:47:16;5.97;;;2.60;;
30515;SDS011;17297;54.022;10.760;2022-07-29T03:49:44;2.17;;;1.80;;
30515;SDS011;17297;54.022;10.760;2022-07-29T03:52:13;16.23;;;4.68;;
30515;SDS011;17297;54.022;10.760;2022-07-29T03:54:39;2.97;;;2.10;;
30515;SDS011;17297;54.022;10.760;2022-07-29T03:57:04;3.88;;;2.30;;
30515;SDS011;17297;54.022;10.760;2022-07-29T03:59:32;3.13;;;1.85;;
30515;SDS011;17297;54.022;10.760;2022-07-29T04:01:59;3.83;;;2.45;;
30515;SDS011;17297;54.022;10.760;2022-07-29T04:04:26;4.82;;;2.70;;
30515;SDS011;17297;54.022;10.760;2022-07-29T04:06:52;2.80;;;2.22;;
30515;SDS011;17297;54.022;10.760;2022-07-29T04:09:17;3.80;;;2.30;;
30515;SDS011;17297;54.022;10.760;2022-07-29T04:11:42;4.50;;;3.33;;
30515;SDS011;17297;54.022;10.760;2022-07-29T04:14:09;4.85;;;3.28;;
30515;SDS011;17297;54.022;10.760;2022-07-29T04:16:35;3.17;;;2.88;;
30515;SDS011;17297;54.022;10.760;2022-07-29T04:19:00;4.72;;;3.17;;
30515;SDS011;17297;54.022;10.760;2022-07-29T04:21:25;4.13;;;3.42;;
30515;SDS011;17297;54.022;10.760;2022-07-29T04:23:51;4.70;;;3.33;;
30515;SDS011;17297;54.022;10.760;2022-07-29T04:26:17;4.30;;;2.95;;
30515;SDS011;17297;54.022;10.760;2022-07-29T04:28:43;4.03;;;3.00;;
30515;SDS011;17297;54.022;10.760;2022-07-29T04:31:09;2.72;;;2.53;;
30515;SDS011;17297;54.022;10.760;2022-07-29T04:33:35;4.45;;;2.38;;
30515;SDS011;17297;54.022;10.760;2022-07-29T04:36:01;5.45;;;2.75;;
30515;SDS011;17297;54.022;10.760;2022-07-29T04:38:26;2.88;;;2.40;;
30515;SDS011;17297;54.022;10.760;2022-07-29T04:40:51;3.20;;;2.90;;
30515;SDS011;17297;54.022;10.760;2022-07-29T04:43:17;3.90;;;2.53;;
30515;SDS011;17297;54.022;10.760;2022-07-29T04:45:42;5.22;;;3.38;;
30515;SDS011;17297;54.022;10.760;2022-07-29T04:48:07;2.65;;;2.40;;
30515;SDS011;17297;54.022;10.760;2022-07-29T04:50:33;3.80;;;2.67;;
30515;SDS011;17297;54.022;10.760;2022-07-29T04:52:58;2.78;;;2.30;;
30515;SDS011;17297;54.022;10.760;2022-07-29T04:55:24;3.35;;;2.42;;
30515;SDS011;17297;54.022;10.760;2022-07-29T04:57:50;5.55;;;2.08;;
30515;SDS011;17297;54.022;10.760;2022-07-29T05:00:15;2.45;;;2.17;;
30515;SDS011;17297;54.022;10.760;2022-07-29T05:02:41;2.05;;;1.80;;
30515;SDS011;17297;54.022;10.760;2022-07-29T05:05:07;2.78;;;2.00;;
30515;SDS011;17297;54.022;10.760;2022-07-29T05:07:32;2.78;;;2.45;;
30515;SDS011;17297;54.022;10.760;2022-07-29T05:09:58;2.75;;;2.22;;
30515;SDS011;17297;54.022;10.760;2022-07-29T05:12:24;5.18;;;2.15;;
30515;SDS011;17297;54.022;10.760;2022-07-29T05:14:49;2.67;;;1.73;;
30515;SDS011;17297;54.022;10.760;2022-07-29T05:17:15;4.70;;;2.00;;
30515;SDS011;17297;54.022;10.760;2022-07-29T05:19:40;3.95;;;2.55;;
30515;SDS011;17297;54.022;10.760;2022-07-29T05:22:05;3.63;;;1.70;;
30515;SDS011;17297;54.022;10.760;2022-07-29T05:24:31;4.93;;;2.35;;
30515;SDS011;17297;54.022;10.760;2022-07-29T05:26:56;3.08;;;2.00;;
30515;SDS011;17297;54.022;10.760;2022-07-29T05:29:21;3.80;;;1.80;;
30515;SDS011;17297;54.022;10.760;2022-07-29T05:31:47;3.38;;;1.70;;
30515;SDS011;17297;54.022;10.760;2022-07-29T05:34:12;4.22;;;2.20;;
30515;SDS011;17297;54.022;10.760;2022-07-29T05:36:37;4.40;;;1.75;;
30515;SDS011;17297;54.022;10.760;2022-07-29T05:39:03;2.58;;;2.33;;
30515;SDS011;17297;54.022;10.760;2022-07-29T05:41:31;3.35;;;1.95;;
30515;SDS011;17297;54.022;10.760;2022-07-29T05:43:56;2.42;;;1.50;;
30515;SDS011;17297;54.022;10.760;2022-07-29T05:46:23;5.47;;;1.65;;
30515;SDS011;17297;54.022;10.760;2022-07-29T05:48:48;2.35;;;1.95;;
30515;SDS011;17297;54.022;10.760;2022-07-29T05:51:13;2.25;;;1.63;;
30515;SDS011;17297;54.022;10.760;2022-07-29T05:53:39;2.92;;;1.50;;
30515;SDS011;17297;54.022;10.760;2022-07-29T05:56:04;4.35;;;1.95;;
30515;SDS011;17297;54.022;10.760;2022-07-29T05:58:30;3.38;;;2.05;;
30515;SDS011;17297;54.022;10.760;2022-07-29T06:00:55;2.70;;;1.58;;
30515;SDS011;17297;54.022;10.760;2022-07-29T06:03:24;3.92;;;1.98;;
30515;SDS011;17297;54.022;10.760;2022-07-29T06:05:50;3.50;;;1.60;;
30515;SDS011;17297;54.022;10.760;2022-07-29T06:08:15;3.72;;;2.30;;
30515;SDS011;17297;54.022;10.760;2022-07-29T06:10:40;3.42;;;2.05;;
30515;SDS011;17297;54.022;10.760;2022-07-29T06:13:06;2.70;;;1.85;;
30515;SDS011;17297;54.022;10.760;2022-07-29T06:15:31;3.45;;;1.88;;
30515;SDS011;17297;54.022;10.760;2022-07-29T06:17:57;6.18;;;2.28;;
30515;SDS011;17297;54.022;10.760;2022-07-29T06:20:22;2.22;;;1.50;;
30515;SDS011;17297;54.022;10.760;2022-07-29T06:22:47;4.30;;;1.65;;
30515;SDS011;17297;54.022;10.760;2022-07-29T06:25:13;3.20;;;1.48;;
30515;SDS011;17297;54.022;10.760;2022-07-29T06:27:41;3.65;;;1.88;;
30515;SDS011;17297;54.022;10.760;2022-07-29T06:30:06;2.70;;;1.80;;
30515;SDS011;17297;54.022;10.760;2022-07-29T06:32:32;2.45;;;1.70;;
30515;SDS011;17297;54.022;10.760;2022-07-29T06:34:58;2.65;;;1.70;;
30515;SDS011;17297;54.022;10.760;2022-07-29T06:37:24;3.17;;;1.70;;
30515;SDS011;17297;54.022;10.760;2022-07-29T06:39:49;1.80;;;1.48;;
30515;SDS011;17297;54.022;10.760;2022-07-29T06:42:35;6.45;;;2.10;;
30515;SDS011;17297;54.022;10.760;2022-07-29T06:45:00;3.40;;;1.73;;
30515;SDS011;17297;54.022;10.760;2022-07-29T06:47:26;2.92;;;1.65;;
30515;SDS011;17297;54.022;10.760;2022-07-29T06:49:51;2.00;;;1.50;;
30515;SDS011;17297;54.022;10.760;2022-07-29T06:52:16;3.05;;;1.55;;
30515;SDS011;17297;54.022;10.760;2022-07-29T06:54:42;1.85;;;1.60;;
30515;SDS011;17297;54.022;10.760;2022-07-29T06:57:12;2.35;;;1.40;;
30515;SDS011;17297;54.022;10.760;2022-07-29T06:59:38;2.47;;;1.42;;
30515;SDS011;17297;54.022;10.760;2022-07-29T07:02:03;2.63;;;1.63;;
30515;SDS011;17297;54.022;10.760;2022-07-29T07:04:29;3.42;;;1.70;;
30515;SDS011;17297;54.022;10.760;2022-07-29T07:06:54;2.20;;;1.85;;
30515;SDS011;17297;54.022;10.760;2022-07-29T07:09:20;3.05;;;1.58;;
30515;SDS011;17297;54.022;10.760;2022-07-29T07:11:45;2.33;;;1.65;;
30515;SDS011;17297;54.022;10.760;2022-07-29T07:14:11;2.20;;;1.27;;
30515;SDS011;17297;54.022;10.760;2022-07-29T07:16:36;3.80;;;1.80;;
30515;SDS011;17297;54.022;10.760;2022-07-29T07:19:02;1.92;;;1.73;;
30515;SDS011;17297;54.022;10.760;2022-07-29T07:21:27;1.95;;;1.35;;
30515;SDS011;17297;54.022;10.760;2022-07-29T07:23:53;2.15;;;1.33;;
30515;SDS011;17297;54.022;10.760;2022-07-29T07:26:18;1.58;;;1.48;;
30515;SDS011;17297;54.022;10.760;2022-07-29T07:28:44;3.08;;;1.83;;
30515;SDS011;17297;54.022;10.760;2022-07-29T07:31:09;2.08;;;1.25;;
30515;SDS011;17297;54.022;10.760;2022-07-29T07:33:35;2.70;;;1.58;;
30515;SDS011;17297;54.022;10.760;2022-07-29T07:36:00;3.05;;;1.63;;
30515;SDS011;17297;54.022;10.760;2022-07-29T07:38:26;4.57;;;1.73;;
30515;SDS011;17297;54.022;10.760;2022-07-29T07:40:51;2.13;;;1.33;;
30515;SDS011;17297;54.022;10.760;2022-07-29T07:43:17;4.15;;;1.73;;
30515;SDS011;17297;54.022;10.760;2022-07-29T07:45:42;3.63;;;1.63;;
30515;SDS011;17297;54.022;10.760;2022-07-29T07:48:07;2.47;;;1.75;;
30515;SDS011;17297;54.022;10.760;2022-07-29T07:50:35;2.38;;;1.33;;
30515;SDS011;17297;54.022;10.760;2022-07-29T07:53:01;2.13;;;1.55;;
30515;SDS011;17297;54.022;10.760;2022-07-29T07:55:27;4.13;;;1.80;;
30515;SDS011;17297;54.022;10.760;2022-07-29T07:57:53;1.67;;;1.58;;
30515;SDS011;17297;54.022;10.760;2022-07-29T08:00:19;3.38;;;1.38;;
30515;SDS011;17297;54.022;10.760;2022-07-29T08:02:45;4.45;;;1.48;;
30515;SDS011;17297;54.022;10.760;2022-07-29T08:05:11;3.00;;;1.90;;
30515;SDS011;17297;54.022;10.760;2022-07-29T08:07:40;3.17;;;1.63;;
30515;SDS011;17297;54.022;10.760;2022-07-29T08:10:06;5.50;;;2.53;;
30515;SDS011;17297;54.022;10.760;2022-07-29T08:12:32;2.38;;;1.50;;
30515;SDS011;17297;54.022;10.760;2022-07-29T08:14:57;3.47;;;1.50;;
30515;SDS011;17297;54.022;10.760;2022-07-29T08:17:22;5.88;;;2.20;;
30515;SDS011;17297;54.022;10.760;2022-07-29T08:19:48;3.90;;;1.70;;
30515;SDS011;17297;54.022;10.760;2022-07-29T08:22:14;5.07;;;1.73;;
30515;SDS011;17297;54.022;10.760;2022-07-29T08:24:40;3.88;;;2.10;;
30515;SDS011;17297;54.022;10.760;2022-07-29T08:27:09;2.40;;;1.70;;
30515;SDS011;17297;54.022;10.760;2022-07-29T08:29:35;4.25;;;2.22;;
30515;SDS011;17297;54.022;10.760;2022-07-29T08:32:00;2.72;;;1.95;;
30515;SDS011;17297;54.022;10.760;2022-07-29T08:34:26;1.48;;;1.38;;
30515;SDS011;17297;54.022;10.760;2022-07-29T08:36:51;2.70;;;1.95;;
30515;SDS011;17297;54.022;10.760;2022-07-29T08:39:17;3.13;;;2.13;;
30515;SDS011;17297;54.022;10.760;2022-07-29T08:41:42;2.92;;;1.90;;
30515;SDS011;17297;54.022;10.760;2022-07-29T08:44:08;3.13;;;1.50;;
30515;SDS011;17297;54.022;10.760;2022-07-29T08:46:34;2.20;;;1.60;;
30515;SDS011;17297;54.022;10.760;2022-07-29T08:49:03;3.45;;;1.67;;
30515;SDS011;17297;54.022;10.760;2022-07-29T08:51:28;2.97;;;1.80;;
30515;SDS011;17297;54.022;10.760;2022-07-29T08:53:55;3.83;;;1.75;;
30515;SDS011;17297;54.022;10.760;2022-07-29T08:56:21;1.92;;;1.73;;
30515;SDS011;17297;54.022;10.760;2022-07-29T08:58:47;4.93;;;2.20;;
30515;SDS011;17297;54.022;10.760;2022-07-29T09:01:13;2.60;;;1.80;;
30515;SDS011;17297;54.022;10.760;2022-07-29T09:03:42;2.97;;;2.00;;
30515;SDS011;17297;54.022;10.760;2022-07-29T09:06:11;9.82;;;2.47;;
30515;SDS011;17297;54.022;10.760;2022-07-29T09:08:38;3.42;;;1.77;;
30515;SDS011;17297;54.022;10.760;2022-07-29T09:11:04;3.97;;;2.20;;
30515;SDS011;17297;54.022;10.760;2022-07-29T09:13:29;5.13;;;1.77;;
30515;SDS011;17297;54.022;10.760;2022-07-29T09:15:54;2.38;;;1.88;;
30515;SDS011;17297;54.022;10.760;2022-07-29T09:18:39;3.17;;;1.70;;
30515;SDS011;17297;54.022;10.760;2022-07-29T09:21:06;4.13;;;1.90;;
30515;SDS011;17297;54.022;10.760;2022-07-29T09:24:11;2.75;;;1.77;;
30515;SDS011;17297;54.022;10.760;2022-07-29T09:29:26;6.10;;;2.08;;
30515;SDS011;17297;54.022;10.760;2022-07-29T09:31:53;3.47;;;1.75;;
30515;SDS011;17297;54.022;10.760;2022-07-29T09:34:23;3.85;;;2.40;;
30515;SDS011;17297;54.022;10.760;2022-07-29T09:36:53;5.13;;;2.25;;
30515;SDS011;17297;54.022;10.760;2022-07-29T09:39:32;2.65;;;2.08;;
30515;SDS011;17297;54.022;10.760;2022-07-29T09:42:04;4.60;;;2.72;;
30515;SDS011;17297;54.022;10.760;2022-07-29T09:44:40;2.80;;;2.40;;
30515;SDS011;17297;54.022;10.760;2022-07-29T09:47:08;2.95;;;1.80;;
30515;SDS011;17297;54.022;10.760;2022-07-29T09:49:34;2.45;;;1.90;;
30515;SDS011;17297;54.022;10.760;2022-07-29T09:52:03;3.50;;;2.15;;
30515;SDS011;17297;54.022;10.760;2022-07-29T09:54:33;6.65;;;1.83;;
30515;SDS011;17297;54.022;10.760;2022-07-29T09:57:03;2.70;;;1.92;;
30515;SDS011;17297;54.022;10.760;2022-07-29T09:59:30;3.78;;;1.70;;
30515;SDS011;17297;54.022;10.760;2022-07-29T10:01:56;2.35;;;1.48;;
30515;SDS011;17297;54.022;10.760;2022-07-29T10:04:22;2.95;;;1.70;;
30515;SDS011;17297;54.022;10.760;2022-07-29T10:07:00;6.97;;;2.25;;
30515;SDS011;17297;54.022;10.760;2022-07-29T10:09:28;2.60;;;1.80;;
30515;SDS011;17297;54.022;10.760;2022-07-29T10:12:05;5.15;;;2.40;;
30515;SDS011;17297;54.022;10.760;2022-07-29T10:14:33;3.40;;;1.92;;
30515;SDS011;17297;54.022;10.760;2022-07-29T10:16:59;4.93;;;2.22;;
30515;SDS011;17297;54.022;10.760;2022-07-29T10:19:26;4.32;;;2.80;;
30515;SDS011;17297;54.022;10.760;2022-07-29T10:21:56;2.47;;;1.98;;
30515;SDS011;17297;54.022;10.760;2022-07-29T10:24:24;2.63;;;1.58;;
30515;SDS011;17297;54.022;10.760;2022-07-29T10:26:51;4.53;;;2.00;;
30515;SDS011;17297;54.022;10.760;2022-07-29T10:29:19;3.22;;;2.30;;
30515;SDS011;17297;54.022;10.760;2022-07-29T10:31:49;4.55;;;2.00;;
30515;SDS011;17297;54.022;10.760;2022-07-29T10:43:37;3.45;;;1.90;;
30515;SDS011;17297;54.022;10.760;2022-07-29T10:46:07;4.68;;;1.98;;
30515;SDS011;17297;54.022;10.760;2022-07-29T10:48:33;4.97;;;2.30;;
30515;SDS011;17297;54.022;10.760;2022-07-29T10:51:01;4.70;;;1.60;;
30515;SDS011;17297;54.022;10.760;2022-07-29T10:56:26;4.97;;;2.38;;
30515;SDS011;17297;54.022;10.760;2022-07-29T11:01:42;3.38;;;2.00;;
30515;SDS011;17297;54.022;10.760;2022-07-29T11:04:08;5.47;;;2.00;;
30515;SDS011;17297;54.022;10.760;2022-07-29T11:09:27;9.32;;;2.17;;
30515;SDS011;17297;54.022;10.760;2022-07-29T11:11:55;3.95;;;2.20;;
30515;SDS011;17297;54.022;10.760;2022-07-29T11:17:18;4.22;;;1.98;;
30515;SDS011;17297;54.022;10.760;2022-07-29T11:19:43;5.38;;;2.13;;
30515;SDS011;17297;54.022;10.760;2022-07-29T11:22:10;4.43;;;1.80;;
30515;SDS011;17297;54.022;10.760;2022-07-29T11:24:36;6.85;;;2.63;;
30515;SDS011;17297;54.022;10.760;2022-07-29T11:27:06;8.95;;;2.10;;
30515;SDS011;17297;54.022;10.760;2022-07-29T11:29:34;4.88;;;2.28;;
30515;SDS011;17297;54.022;10.760;2022-07-29T11:32:13;10.30;;;3.17;;
30515;SDS011;17297;54.022;10.760;2022-07-29T11:34:41;5.22;;;1.90;;
30515;SDS011;17297;54.022;10.760;2022-07-29T11:39:37;4.03;;;1.67;;
30515;SDS011;17297;54.022;10.760;2022-07-29T11:47:26;4.35;;;2.20;;
30515;SDS011;17297;54.022;10.760;2022-07-29T11:49:54;6.80;;;2.15;;
30515;SDS011;17297;54.022;10.760;2022-07-29T11:52:22;5.38;;;1.98;;
30515;SDS011;17297;54.022;10.760;2022-07-29T11:54:48;3.95;;;2.58;;
30515;SDS011;17297;54.022;10.760;2022-07-29T11:57:18;2.33;;;2.08;;
30515;SDS011;17297;54.022;10.760;2022-07-29T11:59:46;5.25;;;2.28;;
30515;SDS011;17297;54.022;10.760;2022-07-29T12:02:13;3.50;;;2.17;;
30515;SDS011;17297;54.022;10.760;2022-07-29T12:07:29;5.93;;;1.92;;
30515;SDS011;17297;54.022;10.760;2022-07-29T12:09:55;6.88;;;2.95;;
30515;SDS011;17297;54.022;10.760;2022-07-29T12:12:21;2.50;;;1.90;;
30515;SDS011;17297;54.022;10.760;2022-07-29T12:14:47;6.55;;;2.13;;
30515;SDS011;17297;54.022;10.760;2022-07-29T12:17:26;3.60;;;1.88;;
30515;SDS011;17297;54.022;10.760;2022-07-29T12:19:56;4.25;;;2.00;;
30515;SDS011;17297;54.022;10.760;2022-07-29T12:22:27;5.28;;;1.88;;
30515;SDS011;17297;54.022;10.760;2022-07-29T12:24:54;5.22;;;2.10;;
30515;SDS011;17297;54.022;10.760;2022-07-29T12:27:20;11.15;;;4.32;;
30515;SDS011;17297;54.022;10.760;2022-07-29T12:29:58;6.85;;;2.58;;
30515;SDS011;17297;54.022;10.760;2022-07-29T12:32:31;6.57;;;2.63;;
30515;SDS011;17297;54.022;10.760;2022-07-29T12:35:02;6.85;;;2.53;;
30515;SDS011;17297;54.022;10.760;2022-07-29T12:37:29;5.63;;;2.25;;
30515;SDS011;17297;54.022;10.760;2022-07-29T12:39:55;6.28;;;2.40;;
30515;SDS011;17297;54.022;10.760;2022-07-29T12:42:20;6.75;;;2.33;;
30515;SDS011;17297;54.022;10.760;2022-07-29T12:44:47;6.47;;;2.38;;
30515;SDS011;17297;54.022;10.760;2022-07-29T12:47:14;4.57;;;1.90;;
30515;SDS011;17297;54.022;10.760;2022-07-29T12:49:41;8.30;;;3.22;;
30515;SDS011;17297;54.022;10.760;2022-07-29T12:54:52;6.97;;;3.25;;
30515;SDS011;17297;54.022;10.760;2022-07-29T12:57:17;4.60;;;2.17;;
30515;SDS011;17297;54.022;10.760;2022-07-29T12:59:43;3.95;;;2.25;;
30515;SDS011;17297;54.022;10.760;2022-07-29T13:02:20;4.70;;;2.10;;
30515;SDS011;17297;54.022;10.760;2022-07-29T13:04:57;5.85;;;2.25;;
30515;SDS011;17297;54.022;10.760;2022-07-29T13:07:27;11.38;;;2.92;;
30515;SDS011;17297;54.022;10.760;2022-07-29T13:09:54;4.57;;;2.30;;
30515;SDS011;17297;54.022;10.760;2022-07-29T13:12:35;4.57;;;2.40;;
30515;SDS011;17297;54.022;10.760;2022-07-29T13:15:00;5.00;;;2.70;;
30515;SDS011;17297;54.022;10.760;2022-07-29T13:17:41;5.93;;;2.80;;
30515;SDS011;17297;54.022;10.760;2022-07-29T13:20:09;4.50;;;2.47;;
30515;SDS011;17297;54.022;10.760;2022-07-29T13:22:37;6.20;;;2.30;;
30515;SDS011;17297;54.022;10.760;2022-07-29T13:25:03;9.57;;;3.28;;
30515;SDS011;17297;54.022;10.760;2022-07-29T13:27:32;8.32;;;2.83;;
30515;SDS011;17297;54.022;10.760;2022-07-29T13:30:00;7.78;;;2.42;;
30515;SDS011;17297;54.022;10.760;2022-07-29T13:32:28;3.70;;;2.72;;
30515;SDS011;17297;54.022;10.760;2022-07-29T13:34:55;6.13;;;2.88;;
30515;SDS011;17297;54.022;10.760;2022-07-29T13:37:22;6.07;;;2.95;;
30515;SDS011;17297;54.022;10.760;2022-07-29T13:39:48;7.20;;;2.92;;
30515;SDS011;17297;54.022;10.760;2022-07-29T13:42:13;7.38;;;2.60;;
30515;SDS011;17297;54.022;10.760;2022-07-29T13:44:39;5.70;;;3.05;;
30515;SDS011;17297;54.022;10.760;2022-07-29T13:47:06;4.68;;;2.63;;
30515;SDS011;17297;54.022;10.760;2022-07-29T13:49:32;7.03;;;2.45;;
30515;SDS011;17297;54.022;10.760;2022-07-29T13:51:58;4.35;;;2.28;;
30515;SDS011;17297;54.022;10.760;2022-07-29T13:54:23;6.47;;;2.75;;
30515;SDS011;17297;54.022;10.760;2022-07-29T13:56:49;4.40;;;2.65;;
30515;SDS011;17297;54.022;10.760;2022-07-29T13:59:15;5.63;;;4.00;;
30515;SDS011;17297;54.022;10.760;2022-07-29T14:01:41;9.20;;;4.07;;
30515;SDS011;17297;54.022;10.760;2022-07-29T14:04:09;8.52;;;2.83;;
30515;SDS011;17297;54.022;10.760;2022-07-29T14:06:35;8.68;;;3.45;;
30515;SDS011;17297;54.022;10.760;2022-07-29T14:09:01;6.07;;;2.60;;
30515;SDS011;17297;54.022;10.760;2022-07-29T14:11:27;6.07;;;2.50;;
30515;SDS011;17297;54.022;10.760;2022-07-29T14:13:53;5.03;;;3.03;;
30515;SDS011;17297;54.022;10.760;2022-07-29T14:16:18;3.50;;;2.58;;
30515;SDS011;17297;54.022;10.760;2022-07-29T14:18:43;4.60;;;2.53;;
30515;SDS011;17297;54.022;10.760;2022-07-29T14:21:09;5.75;;;2.80;;
30515;SDS011;17297;54.022;10.760;2022-07-29T14:23:34;4.25;;;2.75;;
30515;SDS011;17297;54.022;10.760;2022-07-29T14:26:00;5.97;;;2.75;;
30515;SDS011;17297;54.022;10.760;2022-07-29T14:28:25;7.25;;;2.75;;
30515;SDS011;17297;54.022;10.760;2022-07-29T14:30:51;7.90;;;3.35;;
30515;SDS011;17297;54.022;10.760;2022-07-29T14:33:16;4.22;;;2.33;;
30515;SDS011;17297;54.022;10.760;2022-07-29T14:35:41;6.05;;;3.13;;
30515;SDS011;17297;54.022;10.760;2022-07-29T14:38:07;7.32;;;2.97;;
30515;SDS011;17297;54.022;10.760;2022-07-29T14:40:32;5.03;;;2.40;;
30515;SDS011;17297;54.022;10.760;2022-07-29T14:42:57;6.18;;;3.67;;
30515;SDS011;17297;54.022;10.760;2022-07-29T14:45:23;6.90;;;2.30;;
30515;SDS011;17297;54.022;10.760;2022-07-29T14:47:48;6.68;;;2.90;;
30515;SDS011;17297;54.022;10.760;2022-07-29T14:50:15;3.67;;;2.42;;
30515;SDS011;17297;54.022;10.760;2022-07-29T14:52:41;7.28;;;3.30;;
30515;SDS011;17297;54.022;10.760;2022-07-29T14:55:07;8.68;;;3.65;;
30515;SDS011;17297;54.022;10.760;2022-07-29T14:57:32;4.95;;;2.60;;
30515;SDS011;17297;54.022;10.760;2022-07-29T14:59:58;6.93;;;3.47;;
30515;SDS011;17297;54.022;10.760;2022-07-29T15:02:23;6.90;;;2.85;;
30515;SDS011;17297;54.022;10.760;2022-07-29T15:04:49;7.53;;;2.70;;
30515;SDS011;17297;54.022;10.760;2022-07-29T15:07:14;4.97;;;3.33;;
30515;SDS011;17297;54.022;10.760;2022-07-29T15:09:41;9.23;;;3.15;;
30515;SDS011;17297;54.022;10.760;2022-07-29T15:12:06;7.00;;;3.17;;
30515;SDS011;17297;54.022;10.760;2022-07-29T15:14:32;3.65;;;2.35;;
30515;SDS011;17297;54.022;10.760;2022-07-29T15:16:58;9.70;;;3.15;;
30515;SDS011;17297;54.022;10.760;2022-07-29T15:19:26;6.07;;;3.15;;